Time;durP1;ratioP1;P1;durP2;ratioP2;P2;SDS_P1;SDS_P2;PMS_P1;PMS_P2;Temp;Humidity;BMP_temperature;BMP_pressure;BME280_temperature;BME280_humidity;BME280_pressure;Samples;Min_cycle;Max_cycle;Signal;HPM_P1;HPM_P2
2020/12/16 00:01:03;;;;;;;9.97;9.07;;;6.10;99.90;;;;;;6214973;23;20392;-85
2020/12/16 00:03:29;;;;;;;8.93;8.13;;;6.10;99.90;;;;;;6216509;23;20429;-84
2020/12/16 00:05:55;;;;;;;8.20;7.50;;;6.10;99.90;;;;;;6215306;23;20467;-84
2020/12/16 00:08:20;;;;;;;9.40;8.53;;;6.00;99.90;;;;;;6215389;23;20734;-84
2020/12/16 00:10:46;;;;;;;8.70;7.80;;;6.00;99.90;;;;;;6215345;23;20165;-84
2020/12/16 00:13:12;;;;;;;8.70;8.00;;;6.00;99.90;;;;;;6215930;23;20159;-84
2020/12/16 00:15:38;;;;;;;7.60;6.90;;;6.00;99.90;;;;;;6215435;23;20188;-83
2020/12/16 00:18:04;;;;;;;19.20;8.00;;;5.90;99.90;;;;;;6215312;23;20155;-83
2020/12/16 00:20:32;;;;;;;12.93;7.60;;;5.80;99.90;;;;;;6213743;23;20926;-83
2020/12/16 00:22:58;;;;;;;8.70;8.00;;;5.70;99.90;;;;;;6204454;23;20477;-82
2020/12/16 00:25:24;;;;;;;7.90;7.20;;;5.60;99.90;;;;;;6213990;23;20397;-83
2020/12/16 00:27:49;;;;;;;7.77;6.83;;;5.60;99.90;;;;;;6214416;23;20392;-83
2020/12/16 00:30:15;;;;;;;8.17;7.47;;;5.60;99.90;;;;;;6215536;23;20390;-83
2020/12/16 00:32:41;;;;;;;8.63;7.93;;;5.60;99.90;;;;;;6215103;23;20151;-83
2020/12/16 00:35:09;;;;;;;7.80;7.00;;;5.60;99.90;;;;;;6215138;23;20193;-81
2020/12/16 00:37:42;;;;;;;8.10;7.33;;;5.60;99.90;;;;;;6214778;23;20159;-82
2020/12/16 00:40:11;;;;;;;8.27;7.47;;;5.60;99.90;;;;;;6215017;23;20449;-83
2020/12/16 00:42:37;;;;;;;8.53;7.83;;;5.60;99.90;;;;;;6213935;23;20393;-82
2020/12/16 00:45:04;;;;;;;7.80;7.20;;;5.60;99.90;;;;;;6214519;23;20388;-82
2020/12/16 00:47:35;;;;;;;9.13;8.30;;;5.60;99.90;;;;;;6215647;23;20174;-85
2020/12/16 00:50:06;;;;;;;8.07;7.37;;;5.60;99.90;;;;;;6215286;23;20446;-84
2020/12/16 00:52:32;;;;;;;8.07;7.37;;;5.50;99.90;;;;;;6213445;23;20387;-82
2020/12/16 00:54:57;;;;;;;8.20;7.33;;;5.50;99.90;;;;;;6214782;23;20838;-82
2020/12/16 00:57:23;;;;;;;7.60;6.90;;;5.30;99.90;;;;;;6215333;23;20154;-82
2020/12/16 00:59:49;;;;;;;8.20;7.20;;;5.20;99.90;;;;;;6215292;23;20524;-82
2020/12/16 01:02:15;;;;;;;7.60;6.90;;;5.10;99.90;;;;;;6214350;23;20163;-82
2020/12/16 01:04:40;;;;;;;7.30;6.70;;;5.20;99.90;;;;;;6214804;23;20212;-83
2020/12/16 01:07:07;;;;;;;6.60;6.00;;;5.10;99.90;;;;;;6209849;23;20394;-82
2020/12/16 01:09:32;;;;;;;7.13;5.70;;;5.10;99.90;;;;;;6209456;23;20551;-83
2020/12/16 01:11:58;;;;;;;9.67;6.43;;;5.10;99.90;;;;;;6209018;23;20389;-82
2020/12/16 01:14:24;;;;;;;8.10;7.30;;;5.10;99.90;;;;;;6210657;23;20536;-83
2020/12/16 01:16:49;;;;;;;7.90;7.30;;;5.00;99.90;;;;;;6209798;23;20238;-82
2020/12/16 01:19:16;;;;;;;8.17;7.47;;;5.00;99.90;;;;;;6209582;23;20190;-82
2020/12/16 01:21:42;;;;;;;7.07;6.47;;;5.00;99.90;;;;;;6210797;23;20550;-82
2020/12/16 01:24:08;;;;;;;6.80;6.30;;;5.00;99.90;;;;;;6210553;23;20429;-82
2020/12/16 01:26:46;;;;;;;7.20;6.60;;;5.00;99.90;;;;;;6210263;23;20481;-82
2020/12/16 01:29:13;;;;;;;6.50;5.90;;;4.90;99.90;;;;;;6210823;23;20402;-82
2020/12/16 01:31:46;;;;;;;6.97;6.37;;;4.90;99.90;;;;;;6209490;23;20415;-82
2020/12/16 01:34:12;;;;;;;5.63;5.23;;;4.90;99.90;;;;;;6209861;23;20762;-82
2020/12/16 01:36:39;;;;;;;6.97;6.40;;;4.90;99.90;;;;;;6209490;23;20390;-83
2020/12/16 01:39:06;;;;;;;5.83;5.23;;;5.00;99.90;;;;;;6209377;23;20470;-82
2020/12/16 01:41:32;;;;;;;6.20;5.70;;;5.00;99.90;;;;;;6208998;23;20780;-84
2020/12/16 01:44:11;;;;;;;6.77;6.27;;;5.00;99.90;;;;;;6208404;23;20424;-83
2020/12/16 01:46:43;;;;;;;7.20;6.60;;;5.10;99.90;;;;;;6209969;23;20165;-84
2020/12/16 01:49:09;;;;;;;7.33;6.63;;;5.10;99.90;;;;;;6209214;23;20416;-84
2020/12/16 01:51:35;;;;;;;7.07;6.40;;;5.20;99.90;;;;;;6209022;23;20384;-84
2020/12/16 01:54:01;;;;;;;11.23;8.10;;;5.30;99.90;;;;;;6210229;23;20234;-84
2020/12/16 01:56:29;;;;;;;8.23;7.43;;;5.30;99.90;;;;;;6210241;23;20179;-84
2020/12/16 01:58:56;;;;;;;9.07;8.07;;;5.30;99.90;;;;;;6209242;23;20441;-84
2020/12/16 02:01:23;;;;;;;8.60;7.73;;;5.40;99.90;;;;;;6208165;23;20389;-84
2020/12/16 02:03:54;;;;;;;8.20;7.40;;;5.50;99.90;;;;;;6210127;23;20399;-84
2020/12/16 02:06:22;;;;;;;7.73;6.87;;;5.60;99.90;;;;;;6214518;23;20402;-84
2020/12/16 02:08:57;;;;;;;8.00;7.23;;;5.60;99.90;;;;;;6213817;23;20476;-84
2020/12/16 02:11:23;;;;;;;9.50;8.60;;;5.70;99.90;;;;;;6214208;23;20703;-84
2020/12/16 02:13:49;;;;;;;8.10;7.10;;;5.70;99.90;;;;;;6214085;23;20436;-84
2020/12/16 02:16:14;;;;;;;8.70;7.90;;;5.80;99.90;;;;;;6214647;23;20158;-84
2020/12/16 02:18:46;;;;;;;7.67;6.93;;;5.80;99.90;;;;;;6214302;23;20196;-84
2020/12/16 02:21:13;;;;;;;9.93;8.97;;;5.80;99.90;;;;;;6213791;23;20229;-84
2020/12/16 02:23:41;;;;;;;8.57;7.77;;;5.90;99.90;;;;;;6214449;23;20391;-85
2020/12/16 02:26:08;;;;;;;11.40;10.20;;;6.10;99.90;;;;;;6214426;23;20702;-84
2020/12/16 02:28:34;;;;;;;9.03;8.13;;;6.20;99.90;;;;;;6214207;23;20393;-84
2020/12/16 02:31:00;;;;;;;9.93;8.93;;;6.20;99.90;;;;;;6213981;23;20877;-83
2020/12/16 02:33:26;;;;;;;8.73;7.80;;;6.20;99.90;;;;;;6214399;23;20165;-83
2020/12/16 02:35:51;;;;;;;8.60;7.73;;;6.20;99.90;;;;;;6214173;23;20761;-83
2020/12/16 02:38:17;;;;;;;7.80;7.00;;;6.10;99.90;;;;;;6214364;23;20207;-83
2020/12/16 02:40:43;;;;;;;7.13;6.50;;;6.00;99.90;;;;;;6213409;23;20161;-83
2020/12/16 02:43:08;;;;;;;8.30;7.50;;;5.90;99.90;;;;;;6214102;23;20237;-83
2020/12/16 02:45:34;;;;;;;7.37;6.67;;;5.80;99.90;;;;;;6214703;23;20160;-83
2020/12/16 02:47:59;;;;;;;7.97;7.23;;;5.80;99.90;;;;;;6214427;23;20154;-83
2020/12/16 02:50:25;;;;;;;7.60;6.90;;;5.70;99.90;;;;;;6213985;23;20162;-83
2020/12/16 02:52:51;;;;;;;7.07;6.17;;;5.60;99.90;;;;;;6213983;23;20164;-83
2020/12/16 02:55:16;;;;;;;9.07;6.20;;;5.50;99.90;;;;;;6213714;23;20601;-83
2020/12/16 02:57:42;;;;;;;39.57;8.03;;;5.50;99.90;;;;;;6214697;23;20580;-83
2020/12/16 03:00:08;;;;;;;19.07;7.57;;;5.40;99.90;;;;;;6213015;23;20217;-83
2020/12/16 03:02:33;;;;;;;22.47;7.53;;;5.30;99.90;;;;;;6214384;23;20184;-83
2020/12/16 03:04:59;;;;;;;9.13;7.20;;;5.20;99.90;;;;;;6213677;23;20169;-83
2020/12/16 03:07:25;;;;;;;27.30;8.30;;;5.20;99.90;;;;;;6214441;23;20177;-83
2020/12/16 03:09:50;;;;;;;10.00;7.83;;;5.20;99.90;;;;;;6214670;23;20148;-83
2020/12/16 03:12:16;;;;;;;40.50;9.40;;;5.10;99.90;;;;;;6213021;23;20165;-83
2020/12/16 03:14:43;;;;;;;39.27;9.60;;;5.20;99.90;;;;;;6213750;23;20489;-83
2020/12/16 03:17:08;;;;;;;18.07;9.80;;;5.10;99.90;;;;;;6213983;23;20242;-83
2020/12/16 03:19:34;;;;;;;33.77;10.33;;;5.10;99.90;;;;;;6214267;23;20477;-83
2020/12/16 03:22:00;;;;;;;38.90;10.70;;;5.10;99.90;;;;;;6213857;23;20545;-83
2020/12/16 03:24:26;;;;;;;43.43;9.60;;;5.10;99.90;;;;;;6213938;23;20194;-84
2020/12/16 03:26:52;;;;;;;61.90;11.93;;;5.10;99.90;;;;;;6214636;23;20389;-84
2020/12/16 03:29:18;;;;;;;19.77;9.43;;;5.00;99.90;;;;;;6210174;23;20458;-84
2020/12/16 03:31:44;;;;;;;21.67;9.20;;;5.00;99.90;;;;;;6239803;23;20394;-83
2020/12/16 03:34:09;;;;;;;13.37;8.43;;;5.00;99.90;;;;;;6216089;23;20155;-83
2020/12/16 03:36:35;;;;;;;28.03;9.27;;;5.10;99.90;;;;;;6216052;23;20185;-84
2020/12/16 03:39:02;;;;;;;29.50;9.97;;;5.10;99.90;;;;;;6216039;23;20683;-84
2020/12/16 03:41:28;;;;;;;11.80;8.53;;;5.10;99.90;;;;;;6215023;23;20165;-83
2020/12/16 03:43:54;;;;;;;23.63;9.70;;;5.10;99.90;;;;;;6215540;23;20409;-83
2020/12/16 03:46:20;;;;;;;34.07;10.80;;;5.10;99.90;;;;;;6216758;23;20489;-84
2020/12/16 03:48:46;;;;;;;31.27;10.10;;;5.10;99.90;;;;;;6215233;23;20396;-83
2020/12/16 03:51:14;;;;;;;29.03;8.90;;;5.10;99.90;;;;;;6214897;23;20162;-84
2020/12/16 03:53:41;;;;;;;24.00;9.30;;;5.10;99.90;;;;;;6215366;23;20159;-83
2020/12/16 03:56:07;;;;;;;28.37;10.00;;;5.10;99.90;;;;;;6215961;23;20413;-83
2020/12/16 03:58:34;;;;;;;25.67;10.13;;;5.00;99.90;;;;;;6215553;23;20439;-83
2020/12/16 04:01:08;;;;;;;28.13;11.97;;;5.00;99.90;;;;;;6215422;23;20377;-84
2020/12/16 04:03:34;;;;;;;31.10;12.03;;;5.00;99.90;;;;;;6216496;23;20787;-83
2020/12/16 04:06:01;;;;;;;23.27;11.00;;;5.00;99.90;;;;;;6215935;23;20392;-83
2020/12/16 04:08:27;;;;;;;25.83;9.50;;;5.00;99.90;;;;;;6210793;23;20847;-83
2020/12/16 04:10:52;;;;;;;56.60;12.20;;;5.00;99.90;;;;;;6210726;23;20427;-83
2020/12/16 04:13:18;;;;;;;129.73;14.93;;;5.00;99.90;;;;;;6210231;23;20156;-84
2020/12/16 04:15:47;;;;;;;121.07;17.13;;;5.00;99.90;;;;;;6210636;23;20159;-83
2020/12/16 04:18:13;;;;;;;79.23;13.10;;;5.00;99.90;;;;;;6210271;23;20802;-84
2020/12/16 04:20:38;;;;;;;30.93;10.20;;;4.90;99.90;;;;;;6210012;23;20426;-84
2020/12/16 04:23:05;;;;;;;40.87;12.10;;;4.90;99.90;;;;;;6210283;23;20182;-83
2020/12/16 04:25:39;;;;;;;17.73;9.20;;;4.90;99.90;;;;;;6209000;23;20159;-83
2020/12/16 04:28:08;;;;;;;19.27;10.97;;;4.90;99.90;;;;;;6210605;23;20892;-83
2020/12/16 04:30:53;;;;;;;29.97;10.57;;;4.90;99.90;;;;;;6211628;23;20379;-83
2020/12/16 04:33:19;;;;;;;37.77;10.57;;;4.90;99.90;;;;;;6209610;23;20517;-83
2020/12/16 04:35:45;;;;;;;32.40;11.10;;;4.90;99.90;;;;;;6210241;23;21087;-83
2020/12/16 04:38:11;;;;;;;42.83;10.70;;;4.90;99.90;;;;;;6211260;23;20191;-83
2020/12/16 04:40:36;;;;;;;66.07;13.10;;;5.00;99.90;;;;;;6209318;23;20454;-83
2020/12/16 04:43:08;;;;;;;10.93;9.13;;;5.00;99.90;;;;;;6210448;23;20163;-84
2020/12/16 04:45:36;;;;;;;14.87;9.27;;;5.00;99.90;;;;;;6208878;23;20152;-83
2020/12/16 04:48:03;;;;;;;20.03;9.10;;;5.00;99.90;;;;;;6210831;23;20431;-84
2020/12/16 04:50:29;;;;;;;140.20;17.03;;;5.10;99.90;;;;;;6210534;23;20387;-83
2020/12/16 04:53:01;;;;;;;55.67;15.07;;;5.00;99.90;;;;;;6209879;23;20764;-83
2020/12/16 04:55:27;;;;;;;120.63;13.33;;;5.00;99.90;;;;;;6210147;23;20148;-84
2020/12/16 04:57:53;;;;;;;131.47;14.07;;;5.00;99.90;;;;;;6210514;23;20394;-84
2020/12/16 05:00:21;;;;;;;32.67;11.10;;;5.00;99.90;;;;;;6209208;23;20414;-84
2020/12/16 05:02:58;;;;;;;121.07;15.20;;;4.90;99.90;;;;;;6209585;23;20152;-83
2020/12/16 05:05:25;;;;;;;110.00;14.90;;;4.90;99.90;;;;;;6211309;23;20890;-84
2020/12/16 05:07:51;;;;;;;84.37;14.63;;;4.90;99.90;;;;;;6215949;23;20442;-84
2020/12/16 05:10:35;;;;;;;168.07;17.90;;;4.90;99.90;;;;;;6215467;23;20398;-84
2020/12/16 05:13:06;;;;;;;41.00;11.37;;;4.80;99.90;;;;;;6215336;23;20433;-84
2020/12/16 05:15:32;;;;;;;63.43;12.07;;;4.80;99.90;;;;;;6216079;23;20389;-85
2020/12/16 05:18:12;;;;;;;23.40;9.90;;;4.80;99.90;;;;;;6215884;23;20394;-84
2020/12/16 05:20:40;;;;;;;32.43;11.60;;;4.90;99.90;;;;;;6216055;23;20437;-89
2020/12/16 05:23:08;;;;;;;35.33;10.00;;;4.90;99.90;;;;;;6212773;23;20386;-89
2020/12/16 05:25:35;;;;;;;22.67;10.00;;;4.90;99.90;;;;;;6215874;23;20412;-88
2020/12/16 05:28:06;;;;;;;25.47;9.60;;;4.90;99.90;;;;;;6215972;23;20390;-87
2020/12/16 05:30:33;;;;;;;56.47;11.10;;;4.90;99.90;;;;;;6213317;23;20407;-85
2020/12/16 05:33:04;;;;;;;12.63;9.80;;;4.90;99.90;;;;;;6214332;23;20432;-85
2020/12/16 05:35:36;;;;;;;20.97;10.07;;;4.90;99.90;;;;;;6215693;23;20398;-89
2020/12/16 05:38:22;;;;;;;13.57;9.70;;;4.90;99.90;;;;;;6215373;23;20398;-89
2020/12/16 05:40:49;;;;;;;40.93;10.83;;;5.00;99.90;;;;;;6214532;23;20393;-86
2020/12/16 05:43:26;;;;;;;27.73;10.23;;;5.00;99.90;;;;;;6215594;23;20787;-85
2020/12/16 05:46:03;;;;;;;14.87;8.77;;;4.90;99.90;;;;;;6216219;23;20385;-89
2020/12/16 05:48:29;;;;;;;16.60;8.27;;;4.90;99.90;;;;;;6216355;23;20387;-87
2020/12/16 05:50:57;;;;;;;15.63;9.30;;;5.00;99.90;;;;;;6215797;23;20452;-88
2020/12/16 05:53:30;;;;;;;17.27;8.47;;;5.10;99.90;;;;;;6216081;23;21176;-88
2020/12/16 05:56:00;;;;;;;18.03;10.00;;;5.10;99.90;;;;;;6216425;23;20399;-88
2020/12/16 05:58:31;;;;;;;33.73;10.10;;;5.10;99.90;;;;;;6215711;23;20454;-88
2020/12/16 06:00:59;;;;;;;9.93;7.80;;;5.10;99.90;;;;;;6216002;23;20393;-88
2020/12/16 06:03:32;;;;;;;11.70;8.50;;;5.00;99.90;;;;;;6215343;23;20395;-89
2020/12/16 06:06:07;;;;;;;12.97;8.27;;;5.10;99.90;;;;;;6215667;23;20391;-86
2020/12/16 06:08:38;;;;;;;9.17;7.60;;;5.10;99.90;;;;;;6215589;23;20481;-86
2020/12/16 06:11:05;;;;;;;10.90;8.93;;;5.20;99.90;;;;;;6215644;23;20390;-84
2020/12/16 06:13:31;;;;;;;7.63;6.83;;;5.20;99.90;;;;;;6215278;23;20417;-85
2020/12/16 06:16:02;;;;;;;9.47;8.40;;;5.30;99.90;;;;;;6215438;23;20386;-85
2020/12/16 06:18:50;;;;;;;17.27;8.67;;;5.30;99.90;;;;;;6216035;23;20433;-85
2020/12/16 06:21:19;;;;;;;12.83;9.87;;;5.20;99.90;;;;;;6215255;23;20415;-88
2020/12/16 06:23:56;;;;;;;12.50;9.87;;;5.20;99.90;;;;;;6216109;23;20409;-86
2020/12/16 06:26:26;;;;;;;42.67;35.37;;;5.20;99.90;;;;;;6215529;23;20374;-85
2020/12/16 06:28:52;;;;;;;86.57;77.10;;;5.30;99.90;;;;;;6215718;23;20772;-86
2020/12/16 06:31:31;;;;;;;23.83;21.33;;;5.30;99.90;;;;;;6215588;23;20382;-84
2020/12/16 06:34:19;;;;;;;13.70;10.90;;;5.30;99.90;;;;;;6214861;23;20382;-85
2020/12/16 06:36:47;;;;;;;10.83;8.67;;;5.30;99.90;;;;;;6214293;23;20395;-85
2020/12/16 06:39:21;;;;;;;10.97;8.40;;;5.20;99.90;;;;;;6214821;23;20448;-84
2020/12/16 06:41:51;;;;;;;9.60;8.10;;;5.20;99.90;;;;;;6214725;23;20379;-84
2020/12/16 06:44:17;;;;;;;12.23;8.47;;;5.20;99.90;;;;;;6215508;23;20417;-84
2020/12/16 06:46:44;;;;;;;28.07;9.43;;;5.10;99.90;;;;;;6215524;23;20453;-84
2020/12/16 06:49:31;;;;;;;32.23;10.30;;;5.10;99.90;;;;;;6214983;23;20390;-84
2020/12/16 06:52:07;;;;;;;14.13;9.43;;;5.10;99.90;;;;;;6240133;23;20375;-84
2020/12/16 06:54:44;;;;;;;14.23;10.07;;;5.10;99.90;;;;;;6215207;23;20396;-84
2020/12/16 06:57:26;;;;;;;18.60;9.13;;;5.10;99.90;;;;;;6215071;23;20396;-84
2020/12/16 06:59:55;;;;;;;11.93;9.17;;;5.10;99.90;;;;;;6215146;23;20461;-84
2020/12/16 07:02:32;;;;;;;11.87;8.33;;;5.10;99.90;;;;;;6215355;23;20383;-84
2020/12/16 07:05:02;;;;;;;12.00;8.30;;;5.20;99.90;;;;;;6214955;23;20725;-84
2020/12/16 07:07:42;;;;;;;23.53;16.03;;;5.20;99.90;;;;;;6214848;23;20399;-84
2020/12/16 07:10:47;;;;;;;10.80;8.10;;;5.30;99.90;;;;;;6215150;23;20386;-84
2020/12/16 07:13:18;;;;;;;12.40;8.80;;;5.30;99.90;;;;;;6214166;23;20392;-84
2020/12/16 07:15:44;;;;;;;9.47;7.97;;;5.30;99.90;;;;;;6214570;23;20436;-84
2020/12/16 07:18:41;;;;;;;8.20;6.93;;;5.40;99.90;;;;;;6215073;23;20387;-84
2020/12/16 07:21:14;;;;;;;8.87;7.13;;;5.40;99.90;;;;;;6215486;23;20159;-84
2020/12/16 07:23:39;;;;;;;9.97;7.33;;;5.40;99.90;;;;;;6215113;23;20788;-84
2020/12/16 07:26:05;;;;;;;10.00;7.77;;;5.40;99.90;;;;;;6215227;23;20377;-84
2020/12/16 07:28:38;;;;;;;11.50;8.17;;;5.40;99.90;;;;;;6215107;23;20229;-84
2020/12/16 07:31:06;;;;;;;11.57;8.20;;;5.40;99.90;;;;;;6214497;23;20488;-84
2020/12/16 07:33:35;;;;;;;9.70;6.83;;;5.40;99.90;;;;;;6215135;23;20396;-84
2020/12/16 07:36:23;;;;;;;10.30;8.00;;;5.40;99.90;;;;;;6215378;23;20421;-84
2020/12/16 07:38:54;;;;;;;10.97;8.23;;;5.40;99.90;;;;;;6215685;23;20440;-84
2020/12/16 07:41:44;;;;;;;14.53;10.03;;;5.30;99.90;;;;;;6240973;23;20465;-85
2020/12/16 07:44:10;;;;;;;12.10;8.87;;;5.40;99.90;;;;;;6215440;23;20432;-85
2020/12/16 07:46:35;;;;;;;14.70;10.40;;;5.50;99.90;;;;;;6215334;23;20387;-85
2020/12/16 07:49:01;;;;;;;11.60;9.23;;;5.50;99.90;;;;;;6215645;23;20597;-84
2020/12/16 07:51:27;;;;;;;12.47;10.10;;;5.50;99.90;;;;;;6214547;23;20156;-86
2020/12/16 07:54:03;;;;;;;14.57;10.60;;;5.50;99.90;;;;;;6215241;23;20206;-86
2020/12/16 07:56:35;;;;;;;14.63;11.10;;;5.60;99.90;;;;;;6214496;23;20154;-86
2020/12/16 07:59:31;;;;;;;12.13;9.10;;;5.60;99.90;;;;;;6214037;23;20469;-86
2020/12/16 08:02:27;;;;;;;15.33;10.30;;;5.60;99.90;;;;;;6215022;23;20397;-86
2020/12/16 08:05:03;;;;;;;136.13;100.53;;;5.60;99.90;;;;;;6215332;23;20425;-87
2020/12/16 08:07:30;;;;;;;14.03;10.07;;;5.70;99.90;;;;;;6214461;23;20492;-88
2020/12/16 08:10:07;;;;;;;14.80;10.27;;;5.60;99.90;;;;;;6215158;23;20422;-85
2020/12/16 08:12:41;;;;;;;12.53;9.13;;;5.60;99.90;;;;;;6214882;23;20871;-85
2020/12/16 08:15:23;;;;;;;14.70;8.87;;;5.50;99.90;;;;;;6214472;23;20682;-86
2020/12/16 08:17:59;;;;;;;12.80;8.13;;;5.50;99.90;;;;;;6214698;23;20395;-86
2020/12/16 08:20:29;;;;;;;12.83;9.60;;;5.50;99.90;;;;;;6215854;23;20443;-88
2020/12/16 08:26:16;;;;;;;14.07;9.37;;;5.60;99.90;;;;;;6243987;23;20415;-88
2020/12/16 08:28:42;;;;;;;11.93;8.93;;;5.60;99.90;;;;;;6216983;23;20718;-87
2020/12/16 08:31:10;;;;;;;14.70;10.30;;;5.60;99.90;;;;;;6187493;23;20397;-84
2020/12/16 08:33:38;;;;;;;14.80;9.63;;;5.70;99.90;;;;;;6215781;23;20399;-85
2020/12/16 08:36:17;;;;;;;13.30;9.30;;;5.80;99.90;;;;;;6216503;23;20392;-84
2020/12/16 08:38:45;;;;;;;24.10;18.57;;;6.00;99.90;;;;;;6216578;23;20770;-84
2020/12/16 08:41:13;;;;;;;27.43;20.90;;;6.10;99.90;;;;;;6215674;23;20383;-84
2020/12/16 08:43:46;;;;;;;19.37;15.30;;;6.20;99.90;;;;;;6216183;23;20396;-84
2020/12/16 08:46:21;;;;;;;25.43;18.70;;;6.40;99.90;;;;;;6215804;23;20408;-85
2020/12/16 08:48:52;;;;;;;24.93;18.60;;;6.50;99.90;;;;;;6216713;23;20404;-85
2020/12/16 08:51:32;;;;;;;14.27;11.40;;;6.70;99.90;;;;;;6215961;23;20390;-85
2020/12/16 08:54:00;;;;;;;14.87;10.43;;;6.80;99.90;;;;;;6216108;23;20442;-84
2020/12/16 08:56:56;;;;;;;12.10;9.70;;;7.00;99.90;;;;;;6216602;23;20395;-84
2020/12/16 08:59:21;;;;;;;11.03;8.37;;;7.10;99.90;;;;;;6203289;23;20517;-84
2020/12/16 09:02:08;;;;;;;9.60;7.47;;;7.10;99.90;;;;;;6216547;23;20425;-85
2020/12/16 09:04:35;;;;;;;8.10;7.07;;;7.00;99.90;;;;;;6216452;23;20191;-85
2020/12/16 09:07:09;;;;;;;8.47;7.50;;;6.90;99.90;;;;;;6216068;23;20496;-84
2020/12/16 09:10:00;;;;;;;10.63;8.93;;;6.90;99.90;;;;;;6216072;23;20396;-86
2020/12/16 09:12:29;;;;;;;9.30;7.80;;;6.80;99.90;;;;;;6214705;23;20914;-85
2020/12/16 09:15:03;;;;;;;8.63;7.00;;;6.90;99.90;;;;;;6216413;23;20394;-85
2020/12/16 09:17:31;;;;;;;7.63;6.83;;;7.50;99.90;;;;;;6215622;23;20155;-85
2020/12/16 09:19:58;;;;;;;9.27;6.77;;;8.00;99.90;;;;;;6216430;23;20438;-85
2020/12/16 09:22:28;;;;;;;8.37;7.53;;;8.50;99.90;;;;;;6215858;23;20610;-85
2020/12/16 09:24:56;;;;;;;8.30;7.10;;;9.00;99.90;;;;;;6215908;23;20461;-86
2020/12/16 09:27:22;;;;;;;7.20;6.50;;;9.60;99.90;;;;;;6216637;23;20385;-87
2020/12/16 09:29:48;;;;;;;8.50;7.40;;;9.90;99.90;;;;;;6216529;23;20418;-88
2020/12/16 09:32:19;;;;;;;8.13;7.13;;;9.90;99.90;;;;;;6215602;23;20173;-84
2020/12/16 09:34:52;;;;;;;8.80;7.10;;;9.70;99.90;;;;;;6216109;23;20386;-84
2020/12/16 09:37:28;;;;;;;8.17;7.03;;;10.00;99.90;;;;;;6215224;23;20390;-86
2020/12/16 09:40:11;;;;;;;7.40;6.63;;;10.40;99.90;;;;;;6215512;23;20441;-86
2020/12/16 09:42:38;;;;;;;7.93;6.70;;;11.00;99.90;;;;;;6214736;23;20413;-85
2020/12/16 09:45:21;;;;;;;7.50;6.80;;;11.20;99.90;;;;;;6215441;23;20398;-84
2020/12/16 09:47:49;;;;;;;8.00;7.20;;;11.70;99.90;;;;;;6215792;23;20723;-85
2020/12/16 09:50:16;;;;;;;8.20;7.00;;;12.20;99.90;;;;;;6216051;23;20450;-86
2020/12/16 09:52:41;;;;;;;9.37;7.93;;;12.10;99.90;;;;;;6216691;23;20584;-83
2020/12/16 09:55:22;;;;;;;8.90;8.00;;;12.40;99.90;;;;;;6216061;23;21027;-85
2020/12/16 09:58:05;;;;;;;7.90;7.20;;;12.30;99.90;;;;;;6215307;23;20754;-86
2020/12/16 10:00:33;;;;;;;8.27;7.47;;;12.20;99.90;;;;;;6215936;23;20887;-86
2020/12/16 10:03:09;;;;;;;9.10;8.20;;;12.80;99.90;;;;;;6215793;23;20700;-85
2020/12/16 10:05:37;;;;;;;9.17;8.27;;;13.10;99.90;;;;;;6215285;23;20408;-86
2020/12/16 10:08:11;;;;;;;9.33;7.97;;;13.10;99.90;;;;;;6215344;23;20405;-85
2020/12/16 10:11:00;;;;;;;8.40;7.60;;;13.10;99.90;;;;;;6215440;23;20929;-87
2020/12/16 10:13:25;;;;;;;9.33;8.43;;;12.70;99.90;;;;;;6215526;23;20390;-85
2020/12/16 10:15:51;;;;;;;9.53;8.63;;;12.90;99.90;;;;;;6214903;23;20382;-87
2020/12/16 10:18:20;;;;;;;9.20;8.17;;;13.40;99.90;;;;;;6245301;23;20597;-86
2020/12/16 10:20:53;;;;;;;8.17;7.40;;;14.20;99.90;;;;;;6223970;23;20158;-87
2020/12/16 10:23:19;;;;;;;9.77;8.77;;;14.90;99.90;;;;;;6224541;23;20390;-88
2020/12/16 10:25:45;;;;;;;9.37;8.47;;;15.80;99.30;;;;;;6226150;23;20384;-87
2020/12/16 10:28:12;;;;;;;8.30;7.60;;;16.50;97.60;;;;;;6224410;23;20155;-89
2020/12/16 10:31:13;;;;;;;8.80;7.90;;;17.40;95.60;;;;;;6224617;23;20390;-87
2020/12/16 10:33:39;;;;;;;9.50;8.60;;;17.70;93.80;;;;;;6251756;23;20390;-87
2020/12/16 10:36:05;;;;;;;9.57;8.67;;;18.00;93.70;;;;;;6221881;23;20868;-87
2020/12/16 10:38:31;;;;;;;8.87;8.07;;;18.70;91.30;;;;;;6243211;23;20171;-86
2020/12/16 10:40:56;;;;;;;9.83;8.93;;;19.10;91.40;;;;;;6242826;23;20152;-86
2020/12/16 10:43:22;;;;;;;9.20;8.37;;;18.80;89.10;;;;;;6241354;23;20191;-86
2020/12/16 10:45:53;;;;;;;9.50;8.60;;;17.70;91.20;;;;;;6240408;23;20163;-87
2020/12/16 10:48:19;;;;;;;10.37;9.43;;;18.00;91.40;;;;;;6215289;23;20179;-87
2020/12/16 10:50:45;;;;;;;9.90;9.10;;;18.80;91.10;;;;;;6241213;23;20393;-87
2020/12/16 10:53:13;;;;;;;9.57;8.77;;;19.80;88.20;;;;;;6215040;23;20155;-87
2020/12/16 10:55:39;;;;;;;8.57;7.87;;;20.90;78.60;;;;;;6240568;23;20170;-88
2020/12/16 10:58:23;;;;;;;9.30;8.50;;;21.50;70.90;;;;;;6215146;23;20811;-87
2020/12/16 11:00:51;;;;;;;9.20;8.50;;;21.90;69.00;;;;;;6214993;23;20186;-87
2020/12/16 11:03:17;;;;;;;8.93;8.20;;;21.80;65.60;;;;;;6215196;23;20455;-87
2020/12/16 11:05:42;;;;;;;9.57;8.77;;;22.20;67.70;;;;;;6215303;23;20194;-87
2020/12/16 11:08:08;;;;;;;9.90;9.10;;;22.90;60.40;;;;;;6240370;23;20225;-88
2020/12/16 11:10:33;;;;;;;9.70;8.90;;;22.50;58.60;;;;;;6214355;23;20171;-87
2020/12/16 11:12:59;;;;;;;11.63;10.03;;;22.60;59.00;;;;;;6215222;23;20158;-87
2020/12/16 11:15:25;;;;;;;9.07;8.27;;;22.60;58.10;;;;;;6214826;23;20512;-87
2020/12/16 11:17:50;;;;;;;8.97;8.17;;;22.80;57.70;;;;;;6215922;23;20162;-87
2020/12/16 11:20:16;;;;;;;8.47;7.77;;;22.70;57.70;;;;;;6215477;23;20158;-87
2020/12/16 11:22:42;;;;;;;9.10;8.40;;;22.80;56.90;;;;;;6215077;23;20163;-87
2020/12/16 11:25:07;;;;;;;8.73;8.03;;;22.40;56.80;;;;;;6239910;23;20174;-87
2020/12/16 11:27:33;;;;;;;8.73;8.03;;;22.50;59.20;;;;;;6214865;23;20158;-88
2020/12/16 11:29:59;;;;;;;9.00;8.23;;;22.90;58.00;;;;;;6214652;23;20241;-87
2020/12/16 11:32:24;;;;;;;9.03;8.23;;;23.00;56.70;;;;;;6214954;23;20202;-87
2020/12/16 11:34:50;;;;;;;9.47;8.43;;;23.00;56.40;;;;;;6215215;23;20600;-87
2020/12/16 11:37:18;;;;;;;9.70;8.80;;;23.10;56.40;;;;;;6215166;23;20217;-87
2020/12/16 11:39:44;;;;;;;9.77;8.97;;;23.30;54.90;;;;;;6215055;23;20394;-88
2020/12/16 11:42:10;;;;;;;9.27;8.57;;;23.70;56.00;;;;;;6214571;23;20161;-87
2020/12/16 11:44:35;;;;;;;10.10;8.60;;;23.90;54.40;;;;;;6241690;23;20178;-88
2020/12/16 11:47:04;;;;;;;9.37;8.67;;;23.90;55.40;;;;;;6215106;23;20542;-87
2020/12/16 11:49:30;;;;;;;8.70;8.03;;;24.10;53.10;;;;;;6214466;23;20455;-87
2020/12/16 11:51:56;;;;;;;9.57;8.77;;;23.80;54.90;;;;;;6214768;23;20432;-87
2020/12/16 11:54:22;;;;;;;8.93;8.33;;;24.30;53.80;;;;;;6215464;23;20241;-87
2020/12/16 11:56:48;;;;;;;9.43;8.63;;;24.00;54.00;;;;;;6244097;23;20158;-88
2020/12/16 11:59:14;;;;;;;10.23;9.43;;;24.60;53.10;;;;;;6243455;23;20418;-88
2020/12/16 12:01:42;;;;;;;9.10;8.40;;;25.80;50.40;;;;;;6242925;23;20447;-88
2020/12/16 12:04:07;;;;;;;8.33;7.73;;;26.10;50.30;;;;;;6217044;23;20154;-87
2020/12/16 12:06:33;;;;;;;9.00;8.20;;;26.10;49.00;;;;;;6216185;23;20433;-88
2020/12/16 12:08:59;;;;;;;8.90;8.10;;;25.90;47.10;;;;;;6216575;23;20513;-88
2020/12/16 12:11:24;;;;;;;9.57;8.77;;;26.30;47.00;;;;;;6216400;23;20426;-88
2020/12/16 12:13:51;;;;;;;8.10;7.50;;;26.40;47.90;;;;;;6215318;23;20163;-88
2020/12/16 12:16:19;;;;;;;9.50;8.57;;;26.50;47.70;;;;;;6216647;23;20182;-88
2020/12/16 12:18:45;;;;;;;12.50;11.40;;;26.40;47.30;;;;;;6216659;23;20381;-88
2020/12/16 12:21:16;;;;;;;9.37;8.67;;;26.50;47.20;;;;;;6216363;23;20405;-87
2020/12/16 12:23:42;;;;;;;9.67;8.87;;;25.50;48.50;;;;;;6216837;23;20389;-88
2020/12/16 12:26:08;;;;;;;9.77;9.07;;;25.20;49.80;;;;;;6216238;23;20402;-88
2020/12/16 12:28:33;;;;;;;9.87;9.07;;;25.20;49.80;;;;;;6217016;23;20210;-88
2020/12/16 12:30:59;;;;;;;9.80;9.00;;;25.40;49.20;;;;;;6216324;23;20208;-88
2020/12/16 12:33:25;;;;;;;10.30;9.43;;;26.10;48.00;;;;;;6216519;23;20151;-88
2020/12/16 12:35:51;;;;;;;9.10;8.50;;;26.10;47.20;;;;;;6215998;23;20724;-89
2020/12/16 12:38:17;;;;;;;9.57;8.87;;;25.80;47.30;;;;;;6216594;23;20491;-88
2020/12/16 12:40:44;;;;;;;9.90;9.20;;;25.10;48.70;;;;;;6216208;23;20414;-88
2020/12/16 12:43:10;;;;;;;8.83;8.23;;;24.70;49.40;;;;;;6216634;23;20159;-87
2020/12/16 12:45:36;;;;;;;10.67;9.77;;;24.90;50.10;;;;;;6216313;23;20390;-88
2020/12/16 12:48:02;;;;;;;10.40;9.07;;;24.80;49.40;;;;;;6216585;23;20488;-88
2020/12/16 12:50:28;;;;;;;10.37;9.47;;;25.20;49.00;;;;;;6215282;23;20527;-88
2020/12/16 12:52:54;;;;;;;9.10;8.40;;;25.80;47.90;;;;;;6216288;23;20394;-88
2020/12/16 12:55:20;;;;;;;13.10;12.00;;;26.20;46.60;;;;;;6216718;23;20155;-87
2020/12/16 12:57:45;;;;;;;10.87;9.90;;;26.60;45.90;;;;;;6217204;23;20414;-88
2020/12/16 13:00:26;;;;;;;9.40;8.70;;;27.00;45.00;;;;;;6242489;23;20209;-88
2020/12/16 13:02:52;;;;;;;10.30;9.40;;;27.20;43.60;;;;;;6216440;23;20386;-88